sensor_id;sensor_type;location;lat;lon;timestamp;temperature;humidity
34985;DHT22;21190;58.750;17.004;2022-07-29T00:02:24;13.40;99.90
34985;DHT22;21190;58.750;17.004;2022-07-29T00:04:52;13.40;99.90
34985;DHT22;21190;58.750;17.004;2022-07-29T00:07:19;13.50;99.90
34985;DHT22;21190;58.750;17.004;2022-07-29T00:09:46;13.50;99.90
34985;DHT22;21190;58.750;17.004;2022-07-29T00:12:18;13.50;99.90
34985;DHT22;21190;58.750;17.004;2022-07-29T00:14:51;13.50;99.90
34985;DHT22;21190;58.750;17.004;2022-07-29T00:17:18;13.50;99.90
34985;DHT22;21190;58.750;17.004;2022-07-29T00:19:45;13.40;99.90
34985;DHT22;21190;58.750;17.004;2022-07-29T00:22:12;13.40;99.90
34985;DHT22;21190;58.750;17.004;2022-07-29T00:24:39;13.30;99.90
34985;DHT22;21190;58.750;17.004;2022-07-29T00:27:06;13.20;99.90
34985;DHT22;21190;58.750;17.004;2022-07-29T00:29:33;13.10;99.90
34985;DHT22;21190;58.750;17.004;2022-07-29T00:32:01;12.90;99.90
34985;DHT22;21190;58.750;17.004;2022-07-29T00:34:28;12.70;99.90
34985;DHT22;21190;58.750;17.004;2022-07-29T00:37:14;12.60;99.90
34985;DHT22;21190;58.750;17.004;2022-07-29T00:39:41;12.40;99.90
34985;DHT22;21190;58.750;17.004;2022-07-29T00:42:08;12.20;99.90
34985;DHT22;21190;58.750;17.004;2022-07-29T00:44:37;12.20;99.90
34985;DHT22;21190;58.750;17.004;2022-07-29T00:47:04;12.20;99.90
34985;DHT22;21190;58.750;17.004;2022-07-29T00:49:31;12.00;99.90
34985;DHT22;21190;58.750;17.004;2022-07-29T00:52:00;12.10;99.90
34985;DHT22;21190;58.750;17.004;2022-07-29T00:54:27;12.10;99.90
34985;DHT22;21190;58.750;17.004;2022-07-29T00:56:57;12.00;99.90
34985;DHT22;21190;58.750;17.004;2022-07-29T00:59:25;12.00;99.90
34985;DHT22;21190;58.750;17.004;2022-07-29T01:02:00;12.00;99.90
34985;DHT22;21190;58.750;17.004;2022-07-29T01:04:27;12.00;99.90
34985;DHT22;21190;58.750;17.004;2022-07-29T01:06:56;12.00;99.90
34985;DHT22;21190;58.750;17.004;2022-07-29T01:09:25;12.00;99.90
34985;DHT22;21190;58.750;17.004;2022-07-29T01:12:11;12.00;99.90
34985;DHT22;21190;58.750;17.004;2022-07-29T01:14:39;12.00;99.90
34985;DHT22;21190;58.750;17.004;2022-07-29T01:30:19;11.90;99.90
34985;DHT22;21190;58.750;17.004;2022-07-29T01:32:50;11.90;99.90
34985;DHT22;21190;58.750;17.004;2022-07-29T01:35:23;11.90;99.90
34985;DHT22;21190;58.750;17.004;2022-07-29T01:38:08;11.80;99.90
34985;DHT22;21190;58.750;17.004;2022-07-29T01:40:40;11.80;99.90
34985;DHT22;21190;58.750;17.004;2022-07-29T01:43:11;11.80;99.90
34985;DHT22;21190;58.750;17.004;2022-07-29T01:48:40;11.70;99.90
34985;DHT22;21190;58.750;17.004;2022-07-29T01:51:13;11.70;99.90
34985;DHT22;21190;58.750;17.004;2022-07-29T01:53:46;11.70;99.90
34985;DHT22;21190;58.750;17.004;2022-07-29T01:56:14;11.60;99.90
34985;DHT22;21190;58.750;17.004;2022-07-29T01:58:43;11.60;99.90
34985;DHT22;21190;58.750;17.004;2022-07-29T02:01:12;11.60;99.90
34985;DHT22;21190;58.750;17.004;2022-07-29T02:03:41;11.60;99.90
34985;DHT22;21190;58.750;17.004;2022-07-29T02:06:09;11.50;99.90
34985;DHT22;21190;58.750;17.004;2022-07-29T02:08:37;11.50;99.90
34985;DHT22;21190;58.750;17.004;2022-07-29T02:11:06;11.40;99.90
34985;DHT22;21190;58.750;17.004;2022-07-29T02:13:34;11.40;99.90
34985;DHT22;21190;58.750;17.004;2022-07-29T02:16:02;11.30;99.90
34985;DHT22;21190;58.750;17.004;2022-07-29T02:18:31;11.30;99.90
34985;DHT22;21190;58.750;17.004;2022-07-29T02:20:58;11.30;99.90
34985;DHT22;21190;58.750;17.004;2022-07-29T02:23:25;11.30;99.90
34985;DHT22;21190;58.750;17.004;2022-07-29T02:25:55;11.30;99.90
34985;DHT22;21190;58.750;17.004;2022-07-29T02:28:24;11.20;99.90
34985;DHT22;21190;58.750;17.004;2022-07-29T02:30:52;11.30;99.90
34985;DHT22;21190;58.750;17.004;2022-07-29T02:33:20;11.30;99.90
34985;DHT22;21190;58.750;17.004;2022-07-29T02:35:48;11.30;99.90
34985;DHT22;21190;58.750;17.004;2022-07-29T02:38:15;11.20;99.90
34985;DHT22;21190;58.750;17.004;2022-07-29T02:41:03;11.20;99.90
34985;DHT22;21190;58.750;17.004;2022-07-29T02:43:30;11.10;99.90
34985;DHT22;21190;58.750;17.004;2022-07-29T02:45:59;11.10;99.90
34985;DHT22;21190;58.750;17.004;2022-07-29T02:49:13;11.10;99.90
34985;DHT22;21190;58.750;17.004;2022-07-29T02:51:18;11.00;99.90
34985;DHT22;21190;58.750;17.004;2022-07-29T02:54:06;10.90;99.90
34985;DHT22;21190;58.750;17.004;2022-07-29T02:56:34;10.90;99.90
34985;DHT22;21190;58.750;17.004;2022-07-29T02:59:02;10.90;99.90
34985;DHT22;21190;58.750;17.004;2022-07-29T03:01:31;10.90;99.90
34985;DHT22;21190;58.750;17.004;2022-07-29T03:04:00;10.90;99.90
34985;DHT22;21190;58.750;17.004;2022-07-29T03:06:28;10.90;99.90
34985;DHT22;21190;58.750;17.004;2022-07-29T03:09:07;10.90;99.90
34985;DHT22;21190;58.750;17.004;2022-07-29T03:11:39;10.80;99.90
34985;DHT22;21190;58.750;17.004;2022-07-29T03:14:17;10.70;99.90
34985;DHT22;21190;58.750;17.004;2022-07-29T03:16:45;10.50;99.90
34985;DHT22;21190;58.750;17.004;2022-07-29T03:19:12;10.50;99.90
34985;DHT22;21190;58.750;17.004;2022-07-29T03:21:39;10.40;99.90
34985;DHT22;21190;58.750;17.004;2022-07-29T03:24:06;10.40;99.90
34985;DHT22;21190;58.750;17.004;2022-07-29T03:26:38;10.30;99.90
34985;DHT22;21190;58.750;17.004;2022-07-29T03:29:04;10.30;99.90
34985;DHT22;21190;58.750;17.004;2022-07-29T03:31:32;10.30;99.90
34985;DHT22;21190;58.750;17.004;2022-07-29T03:33:59;10.10;99.90
34985;DHT22;21190;58.750;17.004;2022-07-29T03:36:26;10.10;99.90
34985;DHT22;21190;58.750;17.004;2022-07-29T03:38:53;10.10;99.90
34985;DHT22;21190;58.750;17.004;2022-07-29T03:41:21;10.10;99.90
34985;DHT22;21190;58.750;17.004;2022-07-29T03:43:49;10.10;99.90
34985;DHT22;21190;58.750;17.004;2022-07-29T03:46:16;10.10;99.90
34985;DHT22;21190;58.750;17.004;2022-07-29T03:48:46;10.10;99.90
34985;DHT22;21190;58.750;17.004;2022-07-29T03:51:15;10.10;99.90
34985;DHT22;21190;58.750;17.004;2022-07-29T03:53:42;10.10;99.90
34985;DHT22;21190;58.750;17.004;2022-07-29T03:56:09;10.10;99.90
34985;DHT22;21190;58.750;17.004;2022-07-29T03:58:36;10.20;99.90
34985;DHT22;21190;58.750;17.004;2022-07-29T04:01:04;10.30;99.90
34985;DHT22;21190;58.750;17.004;2022-07-29T04:03:31;10.40;99.90
34985;DHT22;21190;58.750;17.004;2022-07-29T04:05:59;10.50;99.90
34985;DHT22;21190;58.750;17.004;2022-07-29T04:08:26;10.60;99.90
34985;DHT22;21190;58.750;17.004;2022-07-29T04:10:53;10.60;99.90
34985;DHT22;21190;58.750;17.004;2022-07-29T04:13:20;10.70;99.90
34985;DHT22;21190;58.750;17.004;2022-07-29T04:15:47;10.80;99.90
34985;DHT22;21190;58.750;17.004;2022-07-29T04:18:14;10.80;99.90
34985;DHT22;21190;58.750;17.004;2022-07-29T04:20:41;10.90;99.90
34985;DHT22;21190;58.750;17.004;2022-07-29T04:23:08;11.00;99.90
34985;DHT22;21190;58.750;17.004;2022-07-29T04:25:39;11.10;99.90
34985;DHT22;21190;58.750;17.004;2022-07-29T04:28:06;11.20;99.90
34985;DHT22;21190;58.750;17.004;2022-07-29T04:30:34;11.20;99.90
34985;DHT22;21190;58.750;17.004;2022-07-29T04:33:02;11.20;99.90
34985;DHT22;21190;58.750;17.004;2022-07-29T04:35:29;11.20;99.90
34985;DHT22;21190;58.750;17.004;2022-07-29T04:38:05;11.30;99.90
34985;DHT22;21190;58.750;17.004;2022-07-29T04:40:32;11.40;99.90
34985;DHT22;21190;58.750;17.004;2022-07-29T04:43:00;11.40;99.90
34985;DHT22;21190;58.750;17.004;2022-07-29T04:45:31;11.50;99.90
34985;DHT22;21190;58.750;17.004;2022-07-29T04:47:58;11.50;99.90
34985;DHT22;21190;58.750;17.004;2022-07-29T04:50:25;11.60;99.90
34985;DHT22;21190;58.750;17.004;2022-07-29T04:52:52;11.60;99.90
34985;DHT22;21190;58.750;17.004;2022-07-29T04:55:19;11.70;99.90
34985;DHT22;21190;58.750;17.004;2022-07-29T04:57:46;11.70;99.90
34985;DHT22;21190;58.750;17.004;2022-07-29T05:00:13;11.80;99.90
34985;DHT22;21190;58.750;17.004;2022-07-29T05:02:40;11.90;99.90
34985;DHT22;21190;58.750;17.004;2022-07-29T05:05:07;12.00;99.90
34985;DHT22;21190;58.750;17.004;2022-07-29T05:07:34;12.10;99.90
34985;DHT22;21190;58.750;17.004;2022-07-29T05:10:02;12.20;99.90
34985;DHT22;21190;58.750;17.004;2022-07-29T05:12:29;12.30;99.90
34985;DHT22;21190;58.750;17.004;2022-07-29T05:14:56;12.40;99.90
34985;DHT22;21190;58.750;17.004;2022-07-29T05:17:23;12.60;99.90
34985;DHT22;21190;58.750;17.004;2022-07-29T05:19:50;12.60;99.90
34985;DHT22;21190;58.750;17.004;2022-07-29T05:22:18;12.70;99.90
34985;DHT22;21190;58.750;17.004;2022-07-29T05:24:46;12.90;99.90
34985;DHT22;21190;58.750;17.004;2022-07-29T05:27:13;13.10;99.90
34985;DHT22;21190;58.750;17.004;2022-07-29T05:29:40;13.10;99.90
34985;DHT22;21190;58.750;17.004;2022-07-29T05:32:10;13.30;99.90
34985;DHT22;21190;58.750;17.004;2022-07-29T05:34:37;13.50;99.90
34985;DHT22;21190;58.750;17.004;2022-07-29T05:37:17;13.70;99.90
34985;DHT22;21190;58.750;17.004;2022-07-29T05:39:44;13.90;99.90
34985;DHT22;21190;58.750;17.004;2022-07-29T05:42:14;14.00;99.90
34985;DHT22;21190;58.750;17.004;2022-07-29T05:44:41;14.20;99.90
34985;DHT22;21190;58.750;17.004;2022-07-29T05:47:08;14.30;99.90
34985;DHT22;21190;58.750;17.004;2022-07-29T05:49:35;14.30;99.90
34985;DHT22;21190;58.750;17.004;2022-07-29T05:52:02;14.40;99.90
34985;DHT22;21190;58.750;17.004;2022-07-29T05:54:29;14.60;99.90
34985;DHT22;21190;58.750;17.004;2022-07-29T05:56:57;14.60;99.90
34985;DHT22;21190;58.750;17.004;2022-07-29T05:59:24;14.70;99.90
34985;DHT22;21190;58.750;17.004;2022-07-29T06:01:55;14.70;99.90
34985;DHT22;21190;58.750;17.004;2022-07-29T06:04:24;14.80;99.90
34985;DHT22;21190;58.750;17.004;2022-07-29T06:06:51;14.80;99.90
34985;DHT22;21190;58.750;17.004;2022-07-29T06:09:18;14.90;99.90
34985;DHT22;21190;58.750;17.004;2022-07-29T06:11:45;14.90;99.90
34985;DHT22;21190;58.750;17.004;2022-07-29T06:14:12;14.90;99.90
34985;DHT22;21190;58.750;17.004;2022-07-29T06:16:40;15.00;99.90
34985;DHT22;21190;58.750;17.004;2022-07-29T06:19:07;15.10;99.90
34985;DHT22;21190;58.750;17.004;2022-07-29T06:21:35;15.10;99.90
34985;DHT22;21190;58.750;17.004;2022-07-29T06:24:07;15.20;99.90
34985;DHT22;21190;58.750;17.004;2022-07-29T06:26:34;15.20;99.90
34985;DHT22;21190;58.750;17.004;2022-07-29T06:29:05;15.30;99.90
34985;DHT22;21190;58.750;17.004;2022-07-29T06:31:33;15.40;99.90
34985;DHT22;21190;58.750;17.004;2022-07-29T06:34:00;15.40;99.90
34985;DHT22;21190;58.750;17.004;2022-07-29T06:36:29;15.50;99.90
34985;DHT22;21190;58.750;17.004;2022-07-29T06:38:56;15.50;99.90
34985;DHT22;21190;58.750;17.004;2022-07-29T06:41:23;15.60;99.90
34985;DHT22;21190;58.750;17.004;2022-07-29T06:43:50;15.70;99.90
34985;DHT22;21190;58.750;17.004;2022-07-29T06:46:21;15.70;99.90
34985;DHT22;21190;58.750;17.004;2022-07-29T06:48:49;15.80;99.90
34985;DHT22;21190;58.750;17.004;2022-07-29T06:51:16;15.90;99.90
34985;DHT22;21190;58.750;17.004;2022-07-29T06:53:49;16.00;99.90
34985;DHT22;21190;58.750;17.004;2022-07-29T06:56:32;16.00;99.90
34985;DHT22;21190;58.750;17.004;2022-07-29T06:59:09;16.10;99.90
34985;DHT22;21190;58.750;17.004;2022-07-29T07:01:36;16.20;99.90
34985;DHT22;21190;58.750;17.004;2022-07-29T07:04:04;16.30;99.90
34985;DHT22;21190;58.750;17.004;2022-07-29T07:06:31;16.30;99.90
34985;DHT22;21190;58.750;17.004;2022-07-29T07:08:57;16.40;99.90
34985;DHT22;21190;58.750;17.004;2022-07-29T07:11:24;16.40;99.90
34985;DHT22;21190;58.750;17.004;2022-07-29T07:13:52;16.40;99.90
34985;DHT22;21190;58.750;17.004;2022-07-29T07:16:19;16.50;99.90
34985;DHT22;21190;58.750;17.004;2022-07-29T07:18:46;16.70;99.90
34985;DHT22;21190;58.750;17.004;2022-07-29T07:21:13;16.70;99.90
34985;DHT22;21190;58.750;17.004;2022-07-29T07:23:45;16.80;99.90
34985;DHT22;21190;58.750;17.004;2022-07-29T07:26:12;16.80;99.90
34985;DHT22;21190;58.750;17.004;2022-07-29T07:28:39;16.80;99.90
34985;DHT22;21190;58.750;17.004;2022-07-29T07:31:06;16.90;99.90
34985;DHT22;21190;58.750;17.004;2022-07-29T07:33:33;17.00;99.90
34985;DHT22;21190;58.750;17.004;2022-07-29T07:36:00;17.10;99.90
34985;DHT22;21190;58.750;17.004;2022-07-29T07:38:27;17.10;99.90
34985;DHT22;21190;58.750;17.004;2022-07-29T07:40:54;17.20;99.90
34985;DHT22;21190;58.750;17.004;2022-07-29T07:43:21;17.20;99.90
34985;DHT22;21190;58.750;17.004;2022-07-29T07:45:49;17.40;99.90
34985;DHT22;21190;58.750;17.004;2022-07-29T07:48:16;17.40;99.90
34985;DHT22;21190;58.750;17.004;2022-07-29T07:50:43;17.40;99.90
34985;DHT22;21190;58.750;17.004;2022-07-29T07:53:10;17.50;99.90
34985;DHT22;21190;58.750;17.004;2022-07-29T07:55:40;17.50;99.90
34985;DHT22;21190;58.750;17.004;2022-07-29T07:58:27;17.60;99.90
34985;DHT22;21190;58.750;17.004;2022-07-29T08:00:54;17.70;99.90
34985;DHT22;21190;58.750;17.004;2022-07-29T08:03:21;17.70;99.90
34985;DHT22;21190;58.750;17.004;2022-07-29T08:05:48;17.80;99.90
34985;DHT22;21190;58.750;17.004;2022-07-29T08:08:17;17.90;99.90
34985;DHT22;21190;58.750;17.004;2022-07-29T08:10:44;17.90;99.90
34985;DHT22;21190;58.750;17.004;2022-07-29T08:13:23;18.00;99.90
34985;DHT22;21190;58.750;17.004;2022-07-29T08:15:51;18.10;99.90
34985;DHT22;21190;58.750;17.004;2022-07-29T08:18:25;18.10;99.90
34985;DHT22;21190;58.750;17.004;2022-07-29T08:20:52;18.20;99.90
34985;DHT22;21190;58.750;17.004;2022-07-29T08:23:19;18.20;99.90
34985;DHT22;21190;58.750;17.004;2022-07-29T08:25:46;18.30;99.90
34985;DHT22;21190;58.750;17.004;2022-07-29T08:28:16;18.30;99.90
34985;DHT22;21190;58.750;17.004;2022-07-29T08:30:43;18.30;99.90
34985;DHT22;21190;58.750;17.004;2022-07-29T08:33:10;18.30;99.90
34985;DHT22;21190;58.750;17.004;2022-07-29T08:35:38;18.40;99.90
34985;DHT22;21190;58.750;17.004;2022-07-29T08:38:05;18.50;99.90
34985;DHT22;21190;58.750;17.004;2022-07-29T08:40:32;18.50;99.90
34985;DHT22;21190;58.750;17.004;2022-07-29T08:43:03;18.60;99.90
34985;DHT22;21190;58.750;17.004;2022-07-29T08:45:36;18.60;99.90
34985;DHT22;21190;58.750;17.004;2022-07-29T08:48:13;18.60;99.90
34985;DHT22;21190;58.750;17.004;2022-07-29T08:50:41;18.60;99.90
34985;DHT22;21190;58.750;17.004;2022-07-29T08:53:12;18.60;99.90
34985;DHT22;21190;58.750;17.004;2022-07-29T08:55:45;18.60;99.90
34985;DHT22;21190;58.750;17.004;2022-07-29T08:58:12;18.70;99.90
34985;DHT22;21190;58.750;17.004;2022-07-29T09:00:45;18.70;99.90
34985;DHT22;21190;58.750;17.004;2022-07-29T09:03:14;18.80;99.90
34985;DHT22;21190;58.750;17.004;2022-07-29T09:05:42;18.90;99.90
34985;DHT22;21190;58.750;17.004;2022-07-29T09:08:14;18.90;99.90
34985;DHT22;21190;58.750;17.004;2022-07-29T09:10:41;19.00;99.90
34985;DHT22;21190;58.750;17.004;2022-07-29T09:13:08;19.00;99.90
34985;DHT22;21190;58.750;17.004;2022-07-29T09:15:35;19.10;99.90
34985;DHT22;21190;58.750;17.004;2022-07-29T09:18:02;19.20;99.90
34985;DHT22;21190;58.750;17.004;2022-07-29T09:20:29;19.30;99.90
34985;DHT22;21190;58.750;17.004;2022-07-29T09:23:16;19.40;99.90
34985;DHT22;21190;58.750;17.004;2022-07-29T09:25:50;19.40;99.90
34985;DHT22;21190;58.750;17.004;2022-07-29T09:28:17;19.50;99.90
34985;DHT22;21190;58.750;17.004;2022-07-29T09:30:50;19.60;99.90
34985;DHT22;21190;58.750;17.004;2022-07-29T09:33:18;19.60;99.90
34985;DHT22;21190;58.750;17.004;2022-07-29T09:35:45;19.70;99.90
34985;DHT22;21190;58.750;17.004;2022-07-29T09:38:22;19.70;99.90
34985;DHT22;21190;58.750;17.004;2022-07-29T09:40:59;19.80;99.90
34985;DHT22;21190;58.750;17.004;2022-07-29T09:43:32;20.00;99.90
34985;DHT22;21190;58.750;17.004;2022-07-29T09:46:11;20.10;99.90
34985;DHT22;21190;58.750;17.004;2022-07-29T09:48:38;20.10;99.90
34985;DHT22;21190;58.750;17.004;2022-07-29T09:51:16;20.10;99.90
34985;DHT22;21190;58.750;17.004;2022-07-29T09:53:47;20.20;99.90
34985;DHT22;21190;58.750;17.004;2022-07-29T09:56:14;20.20;99.90
34985;DHT22;21190;58.750;17.004;2022-07-29T09:58:41;20.30;99.90
34985;DHT22;21190;58.750;17.004;2022-07-29T10:01:08;20.30;99.90
34985;DHT22;21190;58.750;17.004;2022-07-29T10:03:51;20.50;99.90
34985;DHT22;21190;58.750;17.004;2022-07-29T10:06:18;20.60;99.90
34985;DHT22;21190;58.750;17.004;2022-07-29T10:08:45;20.60;99.90
34985;DHT22;21190;58.750;17.004;2022-07-29T10:11:14;20.70;99.90
34985;DHT22;21190;58.750;17.004;2022-07-29T10:13:42;20.70;99.90
34985;DHT22;21190;58.750;17.004;2022-07-29T10:16:09;20.80;99.90
34985;DHT22;21190;58.750;17.004;2022-07-29T10:18:39;21.00;99.90
34985;DHT22;21190;58.750;17.004;2022-07-29T10:21:07;21.10;99.90
34985;DHT22;21190;58.750;17.004;2022-07-29T10:23:34;21.20;99.90
34985;DHT22;21190;58.750;17.004;2022-07-29T10:26:12;21.30;99.90
34985;DHT22;21190;58.750;17.004;2022-07-29T10:28:41;21.30;99.90
34985;DHT22;21190;58.750;17.004;2022-07-29T10:31:10;21.40;99.90
34985;DHT22;21190;58.750;17.004;2022-07-29T10:38:52;21.50;99.10
34985;DHT22;21190;58.750;17.004;2022-07-29T10:44:25;21.50;99.10
34985;DHT22;21190;58.750;17.004;2022-07-29T10:46:52;21.60;98.60
34985;DHT22;21190;58.750;17.004;2022-07-29T10:49:23;21.70;99.80
34985;DHT22;21190;58.750;17.004;2022-07-29T10:59:40;21.70;97.60
34985;DHT22;21190;58.750;17.004;2022-07-29T11:05:09;21.80;98.00
34985;DHT22;21190;58.750;17.004;2022-07-29T11:07:38;22.00;96.70
34985;DHT22;21190;58.750;17.004;2022-07-29T11:15:11;22.10;95.90
34985;DHT22;21190;58.750;17.004;2022-07-29T11:20:36;22.00;96.10
34985;DHT22;21190;58.750;17.004;2022-07-29T11:31:08;22.00;95.80
34985;DHT22;21190;58.750;17.004;2022-07-29T11:33:36;22.00;96.20
34985;DHT22;21190;58.750;17.004;2022-07-29T11:36:22;22.00;95.80
34985;DHT22;21190;58.750;17.004;2022-07-29T11:39:23;22.00;95.50
34985;DHT22;21190;58.750;17.004;2022-07-29T11:41:41;22.00;95.20
34985;DHT22;21190;58.750;17.004;2022-07-29T11:44:08;22.10;95.30
34985;DHT22;21190;58.750;17.004;2022-07-29T11:46:56;22.10;95.00
34985;DHT22;21190;58.750;17.004;2022-07-29T11:49:24;22.10;94.70
34985;DHT22;21190;58.750;17.004;2022-07-29T11:51:58;22.00;94.90
34985;DHT22;21190;58.750;17.004;2022-07-29T11:54:32;22.10;95.10
34985;DHT22;21190;58.750;17.004;2022-07-29T11:57:19;22.20;95.10
34985;DHT22;21190;58.750;17.004;2022-07-29T11:59:47;22.10;94.20
34985;DHT22;21190;58.750;17.004;2022-07-29T12:02:14;22.10;94.70
34985;DHT22;21190;58.750;17.004;2022-07-29T12:05:02;22.10;95.90
34985;DHT22;21190;58.750;17.004;2022-07-29T12:07:37;22.20;95.60
34985;DHT22;21190;58.750;17.004;2022-07-29T12:10:04;22.30;95.10
34985;DHT22;21190;58.750;17.004;2022-07-29T12:12:32;22.30;95.20
34985;DHT22;21190;58.750;17.004;2022-07-29T12:15:15;22.30;95.00
34985;DHT22;21190;58.750;17.004;2022-07-29T12:17:48;22.30;94.90
34985;DHT22;21190;58.750;17.004;2022-07-29T12:20:25;22.30;95.00
34985;DHT22;21190;58.750;17.004;2022-07-29T12:22:53;22.40;94.30
34985;DHT22;21190;58.750;17.004;2022-07-29T12:25:22;22.30;95.80
34985;DHT22;21190;58.750;17.004;2022-07-29T12:28:04;22.40;94.70
34985;DHT22;21190;58.750;17.004;2022-07-29T12:30:43;22.30;92.30
34985;DHT22;21190;58.750;17.004;2022-07-29T12:33:15;22.20;92.90
34985;DHT22;21190;58.750;17.004;2022-07-29T12:35:44;22.20;92.80
34985;DHT22;21190;58.750;17.004;2022-07-29T12:38:29;22.20;93.90
34985;DHT22;21190;58.750;17.004;2022-07-29T12:40:56;22.20;93.00
34985;DHT22;21190;58.750;17.004;2022-07-29T12:43:23;22.20;91.90
34985;DHT22;21190;58.750;17.004;2022-07-29T12:45:55;22.20;92.30
34985;DHT22;21190;58.750;17.004;2022-07-29T12:48:35;22.20;92.60
34985;DHT22;21190;58.750;17.004;2022-07-29T12:51:03;22.30;93.80
34985;DHT22;21190;58.750;17.004;2022-07-29T12:53:30;22.30;94.90
34985;DHT22;21190;58.750;17.004;2022-07-29T12:55:57;22.40;94.60
34985;DHT22;21190;58.750;17.004;2022-07-29T12:58:41;22.40;94.00
34985;DHT22;21190;58.750;17.004;2022-07-29T13:01:12;22.50;93.90
34985;DHT22;21190;58.750;17.004;2022-07-29T13:03:50;22.50;94.00
34985;DHT22;21190;58.750;17.004;2022-07-29T13:06:27;22.40;91.50
34985;DHT22;21190;58.750;17.004;2022-07-29T13:08:58;22.40;92.30
34985;DHT22;21190;58.750;17.004;2022-07-29T13:11:29;22.30;91.20
34985;DHT22;21190;58.750;17.004;2022-07-29T13:13:59;22.30;91.30
34985;DHT22;21190;58.750;17.004;2022-07-29T13:16:32;22.40;91.60
34985;DHT22;21190;58.750;17.004;2022-07-29T13:19:31;22.40;91.40
34985;DHT22;21190;58.750;17.004;2022-07-29T13:21:46;22.40;91.50
34985;DHT22;21190;58.750;17.004;2022-07-29T13:24:13;22.40;91.40
34985;DHT22;21190;58.750;17.004;2022-07-29T13:26:45;22.30;90.70
34985;DHT22;21190;58.750;17.004;2022-07-29T13:29:12;22.20;89.60
34985;DHT22;21190;58.750;17.004;2022-07-29T13:31:39;22.20;91.30
34985;DHT22;21190;58.750;17.004;2022-07-29T13:34:06;22.20;91.30
34985;DHT22;21190;58.750;17.004;2022-07-29T13:36:33;22.20;91.40
34985;DHT22;21190;58.750;17.004;2022-07-29T13:39:06;22.20;91.30
34985;DHT22;21190;58.750;17.004;2022-07-29T13:41:33;22.20;91.20
34985;DHT22;21190;58.750;17.004;2022-07-29T13:44:00;22.20;91.30
34985;DHT22;21190;58.750;17.004;2022-07-29T13:46:27;22.30;93.00
34985;DHT22;21190;58.750;17.004;2022-07-29T13:48:54;22.30;93.80
34985;DHT22;21190;58.750;17.004;2022-07-29T13:51:21;22.30;93.30
34985;DHT22;21190;58.750;17.004;2022-07-29T13:53:48;22.40;92.70
34985;DHT22;21190;58.750;17.004;2022-07-29T13:56:15;22.30;92.50
34985;DHT22;21190;58.750;17.004;2022-07-29T13:58:42;22.40;91.80
34985;DHT22;21190;58.750;17.004;2022-07-29T14:01:09;22.40;92.20
34985;DHT22;21190;58.750;17.004;2022-07-29T14:03:36;22.50;92.10
34985;DHT22;21190;58.750;17.004;2022-07-29T14:06:11;22.40;90.40
34985;DHT22;21190;58.750;17.004;2022-07-29T14:08:38;22.30;91.30
34985;DHT22;21190;58.750;17.004;2022-07-29T14:11:05;22.30;92.60
34985;DHT22;21190;58.750;17.004;2022-07-29T14:13:32;22.40;92.50
34985;DHT22;21190;58.750;17.004;2022-07-29T14:15:59;22.40;92.70
34985;DHT22;21190;58.750;17.004;2022-07-29T14:18:26;22.50;93.60
34985;DHT22;21190;58.750;17.004;2022-07-29T14:20:53;22.60;93.20
34985;DHT22;21190;58.750;17.004;2022-07-29T14:23:20;22.50;93.60
34985;DHT22;21190;58.750;17.004;2022-07-29T14:25:47;22.50;93.10
34985;DHT22;21190;58.750;17.004;2022-07-29T14:28:15;22.50;93.30
34985;DHT22;21190;58.750;17.004;2022-07-29T14:30:42;22.60;93.40
34985;DHT22;21190;58.750;17.004;2022-07-29T14:33:09;22.60;93.40
34985;DHT22;21190;58.750;17.004;2022-07-29T14:35:36;22.70;93.30
34985;DHT22;21190;58.750;17.004;2022-07-29T14:38:03;22.70;93.30
34985;DHT22;21190;58.750;17.004;2022-07-29T14:40:31;22.70;93.00
34985;DHT22;21190;58.750;17.004;2022-07-29T14:42:57;22.70;91.30
34985;DHT22;21190;58.750;17.004;2022-07-29T14:45:24;22.70;92.60
34985;DHT22;21190;58.750;17.004;2022-07-29T14:47:51;22.70;92.90
34985;DHT22;21190;58.750;17.004;2022-07-29T14:50:23;22.70;92.60
34985;DHT22;21190;58.750;17.004;2022-07-29T14:52:57;22.80;92.60
34985;DHT22;21190;58.750;17.004;2022-07-29T14:55:25;22.80;93.00
34985;DHT22;21190;58.750;17.004;2022-07-29T14:57:52;22.80;92.70
34985;DHT22;21190;58.750;17.004;2022-07-29T15:00:33;22.90;92.40
34985;DHT22;21190;58.750;17.004;2022-07-29T15:03:00;22.80;92.60
34985;DHT22;21190;58.750;17.004;2022-07-29T15:05:29;22.80;92.80
34985;DHT22;21190;58.750;17.004;2022-07-29T15:07:56;23.00;93.40
34985;DHT22;21190;58.750;17.004;2022-07-29T15:10:23;23.10;93.10
34985;DHT22;21190;58.750;17.004;2022-07-29T15:12:53;23.10;92.90
34985;DHT22;21190;58.750;17.004;2022-07-29T15:15:20;23.10;93.50
34985;DHT22;21190;58.750;17.004;2022-07-29T15:17:47;23.20;93.40
34985;DHT22;21190;58.750;17.004;2022-07-29T15:20:15;23.30;92.40
34985;DHT22;21190;58.750;17.004;2022-07-29T15:22:43;23.40;91.90
34985;DHT22;21190;58.750;17.004;2022-07-29T15:25:10;23.30;91.60
34985;DHT22;21190;58.750;17.004;2022-07-29T15:27:37;23.40;91.70
34985;DHT22;21190;58.750;17.004;2022-07-29T15:30:04;23.50;91.90
34985;DHT22;21190;58.750;17.004;2022-07-29T15:32:31;23.60;91.60
34985;DHT22;21190;58.750;17.004;2022-07-29T15:34:58;23.60;92.00
34985;DHT22;21190;58.750;17.004;2022-07-29T15:37:25;23.70;92.30
34985;DHT22;21190;58.750;17.004;2022-07-29T15:40:12;23.80;93.30
34985;DHT22;21190;58.750;17.004;2022-07-29T15:42:39;23.80;93.20
34985;DHT22;21190;58.750;17.004;2022-07-29T15:45:06;23.90;93.20
34985;DHT22;21190;58.750;17.004;2022-07-29T15:47:34;24.00;94.20
34985;DHT22;21190;58.750;17.004;2022-07-29T15:50:01;24.20;94.70
34985;DHT22;21190;58.750;17.004;2022-07-29T15:52:29;24.40;94.80
34985;DHT22;21190;58.750;17.004;2022-07-29T15:54:56;24.50;95.00
34985;DHT22;21190;58.750;17.004;2022-07-29T15:57:23;24.50;95.10
34985;DHT22;21190;58.750;17.004;2022-07-29T15:59:50;24.50;94.80
34985;DHT22;21190;58.750;17.004;2022-07-29T16:02:17;24.60;94.40
34985;DHT22;21190;58.750;17.004;2022-07-29T16:04:44;24.70;94.10
34985;DHT22;21190;58.750;17.004;2022-07-29T16:07:11;24.60;93.80
34985;DHT22;21190;58.750;17.004;2022-07-29T16:09:40;24.70;94.00
34985;DHT22;21190;58.750;17.004;2022-07-29T16:12:07;24.60;93.50
34985;DHT22;21190;58.750;17.004;2022-07-29T16:14:43;24.40;92.80
34985;DHT22;21190;58.750;17.004;2022-07-29T16:17:10;24.20;92.50
34985;DHT22;21190;58.750;17.004;2022-07-29T16:19:41;24.10;92.40
34985;DHT22;21190;58.750;17.004;2022-07-29T16:22:08;23.70;91.50